sensor_id;sensor_type;location;lat;lon;timestamp;P1;durP1;ratioP1;P2;durP2;ratioP2
27491;SDS011;14927;51.210;6.838;2023-07-29T00:01:55;1.20;;;1.00;;
27491;SDS011;14927;51.210;6.838;2023-07-29T00:04:40;2.38;;;1.25;;
27491;SDS011;14927;51.210;6.838;2023-07-29T00:07:24;2.58;;;1.35;;
27491;SDS011;14927;51.210;6.838;2023-07-29T00:10:09;1.08;;;1.00;;
27491;SDS011;14927;51.210;6.838;2023-07-29T00:12:54;3.05;;;1.00;;
27491;SDS011;14927;51.210;6.838;2023-07-29T00:15:39;2.25;;;1.20;;
27491;SDS011;14927;51.210;6.838;2023-07-29T00:18:23;5.30;;;1.45;;
27491;SDS011;14927;51.210;6.838;2023-07-29T00:21:08;2.55;;;1.13;;
27491;SDS011;14927;51.210;6.838;2023-07-29T00:23:53;1.20;;;1.10;;
27491;SDS011;14927;51.210;6.838;2023-07-29T00:26:37;1.75;;;1.48;;
27491;SDS011;14927;51.210;6.838;2023-07-29T00:29:22;1.95;;;1.40;;
27491;SDS011;14927;51.210;6.838;2023-07-29T00:32:07;2.17;;;1.52;;
27491;SDS011;14927;51.210;6.838;2023-07-29T00:34:52;2.67;;;1.40;;
27491;SDS011;14927;51.210;6.838;2023-07-29T00:37:36;2.17;;;1.83;;
27491;SDS011;14927;51.210;6.838;2023-07-29T00:40:22;2.85;;;1.67;;
27491;SDS011;14927;51.210;6.838;2023-07-29T00:43:06;2.45;;;1.45;;
27491;SDS011;14927;51.210;6.838;2023-07-29T00:45:51;2.13;;;1.25;;
27491;SDS011;14927;51.210;6.838;2023-07-29T00:48:36;1.90;;;1.55;;
27491;SDS011;14927;51.210;6.838;2023-07-29T00:51:21;2.42;;;1.42;;
27491;SDS011;14927;51.210;6.838;2023-07-29T00:54:06;3.05;;;2.22;;
27491;SDS011;14927;51.210;6.838;2023-07-29T00:56:50;1.67;;;1.30;;
27491;SDS011;14927;51.210;6.838;2023-07-29T00:59:36;4.20;;;1.70;;
27491;SDS011;14927;51.210;6.838;2023-07-29T01:02:20;2.95;;;1.63;;
27491;SDS011;14927;51.210;6.838;2023-07-29T01:05:05;2.17;;;1.50;;
27491;SDS011;14927;51.210;6.838;2023-07-29T01:10:46;2.28;;;1.48;;
27491;SDS011;14927;51.210;6.838;2023-07-29T01:13:47;6.22;;;2.30;;
27491;SDS011;14927;51.210;6.838;2023-07-29T01:22:50;2.03;;;1.70;;
27491;SDS011;14927;51.210;6.838;2023-07-29T01:25:36;2.50;;;1.80;;
27491;SDS011;14927;51.210;6.838;2023-07-29T01:28:21;4.35;;;1.90;;
27491;SDS011;14927;51.210;6.838;2023-07-29T01:34:39;3.15;;;2.00;;
27491;SDS011;14927;51.210;6.838;2023-07-29T01:37:51;2.10;;;1.90;;
27491;SDS011;14927;51.210;6.838;2023-07-29T01:40:40;2.65;;;1.90;;
27491;SDS011;14927;51.210;6.838;2023-07-29T01:43:29;3.08;;;1.58;;
27491;SDS011;14927;51.210;6.838;2023-07-29T01:46:15;3.27;;;2.13;;
27491;SDS011;14927;51.210;6.838;2023-07-29T01:49:00;5.38;;;1.73;;
27491;SDS011;14927;51.210;6.838;2023-07-29T01:51:45;2.45;;;1.58;;
27491;SDS011;14927;51.210;6.838;2023-07-29T01:54:29;2.00;;;1.52;;
27491;SDS011;14927;51.210;6.838;2023-07-29T01:57:14;4.28;;;1.80;;
27491;SDS011;14927;51.210;6.838;2023-07-29T01:59:59;2.75;;;1.88;;
27491;SDS011;14927;51.210;6.838;2023-07-29T02:02:43;4.47;;;1.60;;
27491;SDS011;14927;51.210;6.838;2023-07-29T02:05:28;1.90;;;1.45;;
27491;SDS011;14927;51.210;6.838;2023-07-29T02:08:13;3.40;;;1.55;;
27491;SDS011;14927;51.210;6.838;2023-07-29T02:10:58;1.83;;;1.50;;
27491;SDS011;14927;51.210;6.838;2023-07-29T02:13:43;1.58;;;1.40;;
27491;SDS011;14927;51.210;6.838;2023-07-29T02:16:27;3.72;;;1.80;;
27491;SDS011;14927;51.210;6.838;2023-07-29T02:19:12;1.73;;;1.33;;
27491;SDS011;14927;51.210;6.838;2023-07-29T02:21:57;8.43;;;1.60;;
27491;SDS011;14927;51.210;6.838;2023-07-29T02:24:42;3.97;;;1.55;;
27491;SDS011;14927;51.210;6.838;2023-07-29T02:27:27;2.05;;;1.58;;
27491;SDS011;14927;51.210;6.838;2023-07-29T02:30:12;3.20;;;1.70;;
27491;SDS011;14927;51.210;6.838;2023-07-29T02:32:56;1.60;;;1.50;;
27491;SDS011;14927;51.210;6.838;2023-07-29T02:35:41;2.47;;;1.60;;
27491;SDS011;14927;51.210;6.838;2023-07-29T02:38:26;2.28;;;1.67;;
27491;SDS011;14927;51.210;6.838;2023-07-29T02:41:11;2.70;;;1.48;;
27491;SDS011;14927;51.210;6.838;2023-07-29T02:44:00;3.42;;;1.67;;
27491;SDS011;14927;51.210;6.838;2023-07-29T02:46:45;4.53;;;1.80;;
27491;SDS011;14927;51.210;6.838;2023-07-29T02:49:30;1.85;;;1.60;;
27491;SDS011;14927;51.210;6.838;2023-07-29T02:52:15;5.97;;;1.50;;
27491;SDS011;14927;51.210;6.838;2023-07-29T02:54:59;3.88;;;1.60;;
27491;SDS011;14927;51.210;6.838;2023-07-29T02:57:44;2.28;;;1.60;;
27491;SDS011;14927;51.210;6.838;2023-07-29T03:00:30;1.52;;;1.42;;
27491;SDS011;14927;51.210;6.838;2023-07-29T03:03:16;3.70;;;1.40;;
27491;SDS011;14927;51.210;6.838;2023-07-29T03:06:06;9.57;;;1.50;;
27491;SDS011;14927;51.210;6.838;2023-07-29T03:08:53;1.83;;;1.10;;
27491;SDS011;14927;51.210;6.838;2023-07-29T03:11:38;2.33;;;1.20;;
27491;SDS011;14927;51.210;6.838;2023-07-29T03:14:22;3.20;;;1.27;;
27491;SDS011;14927;51.210;6.838;2023-07-29T03:17:07;2.83;;;1.55;;
27491;SDS011;14927;51.210;6.838;2023-07-29T03:19:51;2.25;;;1.33;;
27491;SDS011;14927;51.210;6.838;2023-07-29T03:22:36;1.60;;;0.90;;
27491;SDS011;14927;51.210;6.838;2023-07-29T03:25:21;4.22;;;1.48;;
27491;SDS011;14927;51.210;6.838;2023-07-29T03:28:05;2.03;;;1.20;;
27491;SDS011;14927;51.210;6.838;2023-07-29T03:30:50;3.28;;;1.33;;
27491;SDS011;14927;51.210;6.838;2023-07-29T03:33:35;2.58;;;1.10;;
27491;SDS011;14927;51.210;6.838;2023-07-29T03:36:20;3.72;;;1.20;;
27491;SDS011;14927;51.210;6.838;2023-07-29T03:39:05;2.85;;;1.52;;
27491;SDS011;14927;51.210;6.838;2023-07-29T03:41:51;3.72;;;1.30;;
27491;SDS011;14927;51.210;6.838;2023-07-29T03:44:36;2.22;;;1.33;;
27491;SDS011;14927;51.210;6.838;2023-07-29T03:47:22;1.95;;;1.40;;
27491;SDS011;14927;51.210;6.838;2023-07-29T03:50:07;6.78;;;1.50;;
27491;SDS011;14927;51.210;6.838;2023-07-29T03:52:52;3.40;;;1.50;;
27491;SDS011;14927;51.210;6.838;2023-07-29T03:55:37;2.30;;;1.90;;
27491;SDS011;14927;51.210;6.838;2023-07-29T03:58:21;5.25;;;1.60;;
27491;SDS011;14927;51.210;6.838;2023-07-29T04:01:06;4.57;;;1.35;;
27491;SDS011;14927;51.210;6.838;2023-07-29T04:03:50;4.40;;;1.50;;
27491;SDS011;14927;51.210;6.838;2023-07-29T04:06:36;4.18;;;1.38;;
27491;SDS011;14927;51.210;6.838;2023-07-29T04:09:20;2.00;;;1.00;;
27491;SDS011;14927;51.210;6.838;2023-07-29T04:12:05;3.80;;;1.20;;
27491;SDS011;14927;51.210;6.838;2023-07-29T04:14:50;1.65;;;1.50;;
27491;SDS011;14927;51.210;6.838;2023-07-29T04:17:34;5.00;;;2.10;;
27491;SDS011;14927;51.210;6.838;2023-07-29T04:20:19;3.08;;;1.23;;
27491;SDS011;14927;51.210;6.838;2023-07-29T04:23:04;3.60;;;1.40;;
27491;SDS011;14927;51.210;6.838;2023-07-29T04:25:48;2.67;;;1.50;;
27491;SDS011;14927;51.210;6.838;2023-07-29T04:28:33;1.95;;;1.20;;
27491;SDS011;14927;51.210;6.838;2023-07-29T04:31:17;2.42;;;1.55;;
27491;SDS011;14927;51.210;6.838;2023-07-29T04:34:02;9.70;;;1.90;;
27491;SDS011;14927;51.210;6.838;2023-07-29T04:36:49;3.45;;;1.70;;
27491;SDS011;14927;51.210;6.838;2023-07-29T04:39:33;10.77;;;1.50;;
27491;SDS011;14927;51.210;6.838;2023-07-29T04:42:18;3.40;;;1.35;;
27491;SDS011;14927;51.210;6.838;2023-07-29T04:45:03;3.20;;;1.38;;
27491;SDS011;14927;51.210;6.838;2023-07-29T04:47:48;1.77;;;1.40;;
27491;SDS011;14927;51.210;6.838;2023-07-29T04:50:33;3.30;;;1.60;;
27491;SDS011;14927;51.210;6.838;2023-07-29T04:53:17;3.05;;;1.42;;
27491;SDS011;14927;51.210;6.838;2023-07-29T04:56:02;2.72;;;1.42;;
27491;SDS011;14927;51.210;6.838;2023-07-29T04:58:47;1.90;;;1.80;;
27491;SDS011;14927;51.210;6.838;2023-07-29T05:01:32;4.32;;;1.73;;
27491;SDS011;14927;51.210;6.838;2023-07-29T05:04:16;2.90;;;1.40;;
27491;SDS011;14927;51.210;6.838;2023-07-29T05:07:01;4.53;;;1.50;;
27491;SDS011;14927;51.210;6.838;2023-07-29T05:09:47;3.38;;;1.75;;
27491;SDS011;14927;51.210;6.838;2023-07-29T05:12:32;4.70;;;1.55;;
27491;SDS011;14927;51.210;6.838;2023-07-29T05:15:17;4.13;;;1.77;;
27491;SDS011;14927;51.210;6.838;2023-07-29T05:18:02;4.50;;;1.50;;
27491;SDS011;14927;51.210;6.838;2023-07-29T05:20:49;5.25;;;2.00;;
27491;SDS011;14927;51.210;6.838;2023-07-29T05:23:33;2.33;;;1.70;;
27491;SDS011;14927;51.210;6.838;2023-07-29T05:26:18;4.05;;;1.60;;
27491;SDS011;14927;51.210;6.838;2023-07-29T05:29:03;1.83;;;1.60;;
27491;SDS011;14927;51.210;6.838;2023-07-29T05:31:48;2.70;;;1.73;;
27491;SDS011;14927;51.210;6.838;2023-07-29T05:34:33;2.67;;;2.13;;
27491;SDS011;14927;51.210;6.838;2023-07-29T05:37:20;1.92;;;1.60;;
27491;SDS011;14927;51.210;6.838;2023-07-29T05:40:05;2.10;;;1.67;;
27491;SDS011;14927;51.210;6.838;2023-07-29T05:45:40;5.57;;;1.73;;
27491;SDS011;14927;51.210;6.838;2023-07-29T05:48:25;3.05;;;1.70;;
27491;SDS011;14927;51.210;6.838;2023-07-29T05:51:10;2.28;;;1.80;;
27491;SDS011;14927;51.210;6.838;2023-07-29T05:53:55;4.05;;;2.40;;
27491;SDS011;14927;51.210;6.838;2023-07-29T05:56:39;2.80;;;1.77;;
27491;SDS011;14927;51.210;6.838;2023-07-29T05:59:26;3.83;;;1.85;;
27491;SDS011;14927;51.210;6.838;2023-07-29T06:02:13;6.63;;;1.63;;
27491;SDS011;14927;51.210;6.838;2023-07-29T06:04:58;6.93;;;1.45;;
27491;SDS011;14927;51.210;6.838;2023-07-29T06:07:42;5.25;;;1.92;;
27491;SDS011;14927;51.210;6.838;2023-07-29T06:10:28;1.80;;;1.40;;
27491;SDS011;14927;51.210;6.838;2023-07-29T06:13:13;2.38;;;1.40;;
27491;SDS011;14927;51.210;6.838;2023-07-29T06:15:58;2.25;;;1.42;;
27491;SDS011;14927;51.210;6.838;2023-07-29T06:18:49;1.73;;;1.30;;
27491;SDS011;14927;51.210;6.838;2023-07-29T06:21:33;3.47;;;1.38;;
27491;SDS011;14927;51.210;6.838;2023-07-29T06:24:19;2.30;;;2.10;;
27491;SDS011;14927;51.210;6.838;2023-07-29T06:27:04;2.15;;;1.50;;
27491;SDS011;14927;51.210;6.838;2023-07-29T06:29:49;2.50;;;1.50;;
27491;SDS011;14927;51.210;6.838;2023-07-29T06:32:34;1.77;;;1.30;;
27491;SDS011;14927;51.210;6.838;2023-07-29T06:35:19;1.50;;;1.27;;
27491;SDS011;14927;51.210;6.838;2023-07-29T06:38:04;2.97;;;1.13;;
27491;SDS011;14927;51.210;6.838;2023-07-29T06:40:48;1.27;;;1.00;;
27491;SDS011;14927;51.210;6.838;2023-07-29T06:43:33;1.48;;;1.27;;
27491;SDS011;14927;51.210;6.838;2023-07-29T06:46:18;2.13;;;1.13;;
27491;SDS011;14927;51.210;6.838;2023-07-29T06:49:03;0.95;;;0.90;;
27491;SDS011;14927;51.210;6.838;2023-07-29T06:51:49;1.20;;;1.13;;
27491;SDS011;14927;51.210;6.838;2023-07-29T06:54:37;2.17;;;1.00;;
27491;SDS011;14927;51.210;6.838;2023-07-29T06:57:22;4.13;;;0.80;;
27491;SDS011;14927;51.210;6.838;2023-07-29T07:00:07;1.08;;;1.00;;
27491;SDS011;14927;51.210;6.838;2023-07-29T07:02:53;2.03;;;1.30;;
27491;SDS011;14927;51.210;6.838;2023-07-29T07:05:37;0.80;;;0.80;;
27491;SDS011;14927;51.210;6.838;2023-07-29T07:08:22;3.38;;;0.90;;
27491;SDS011;14927;51.210;6.838;2023-07-29T07:11:07;1.40;;;1.10;;
27491;SDS011;14927;51.210;6.838;2023-07-29T07:13:51;1.58;;;1.00;;
27491;SDS011;14927;51.210;6.838;2023-07-29T07:16:36;1.58;;;1.20;;
27491;SDS011;14927;51.210;6.838;2023-07-29T07:19:23;2.42;;;1.50;;
27491;SDS011;14927;51.210;6.838;2023-07-29T07:22:07;4.22;;;1.42;;
27491;SDS011;14927;51.210;6.838;2023-07-29T07:24:52;3.08;;;2.15;;
27491;SDS011;14927;51.210;6.838;2023-07-29T07:27:37;1.98;;;1.27;;
27491;SDS011;14927;51.210;6.838;2023-07-29T07:30:21;3.15;;;1.60;;
27491;SDS011;14927;51.210;6.838;2023-07-29T07:33:06;2.05;;;1.42;;
27491;SDS011;14927;51.210;6.838;2023-07-29T07:35:50;1.40;;;1.30;;
27491;SDS011;14927;51.210;6.838;2023-07-29T07:38:35;2.03;;;1.40;;
27491;SDS011;14927;51.210;6.838;2023-07-29T07:41:20;1.63;;;1.17;;
27491;SDS011;14927;51.210;6.838;2023-07-29T07:44:05;1.65;;;1.20;;
27491;SDS011;14927;51.210;6.838;2023-07-29T07:46:49;1.20;;;1.10;;
27491;SDS011;14927;51.210;6.838;2023-07-29T07:49:34;3.72;;;1.17;;
27491;SDS011;14927;51.210;6.838;2023-07-29T07:52:19;1.52;;;1.15;;
27491;SDS011;14927;51.210;6.838;2023-07-29T07:55:03;1.40;;;1.10;;
27491;SDS011;14927;51.210;6.838;2023-07-29T07:57:49;2.47;;;1.20;;
27491;SDS011;14927;51.210;6.838;2023-07-29T08:00:33;2.05;;;1.00;;
27491;SDS011;14927;51.210;6.838;2023-07-29T08:03:18;1.85;;;1.08;;
27491;SDS011;14927;51.210;6.838;2023-07-29T08:06:02;1.58;;;0.93;;
27491;SDS011;14927;51.210;6.838;2023-07-29T08:08:48;1.08;;;0.90;;
27491;SDS011;14927;51.210;6.838;2023-07-29T08:11:32;0.80;;;0.77;;
27491;SDS011;14927;51.210;6.838;2023-07-29T08:14:17;2.42;;;0.88;;
27491;SDS011;14927;51.210;6.838;2023-07-29T08:17:02;1.67;;;0.95;;
27491;SDS011;14927;51.210;6.838;2023-07-29T08:19:46;4.57;;;0.80;;
27491;SDS011;14927;51.210;6.838;2023-07-29T08:22:31;3.15;;;0.85;;
27491;SDS011;14927;51.210;6.838;2023-07-29T08:25:16;1.67;;;0.73;;
27491;SDS011;14927;51.210;6.838;2023-07-29T08:28:01;1.75;;;0.80;;
27491;SDS011;14927;51.210;6.838;2023-07-29T08:30:45;1.23;;;1.00;;
27491;SDS011;14927;51.210;6.838;2023-07-29T08:33:30;1.02;;;0.80;;
27491;SDS011;14927;51.210;6.838;2023-07-29T08:36:17;0.60;;;0.60;;
27491;SDS011;14927;51.210;6.838;2023-07-29T08:39:03;0.57;;;0.57;;
27491;SDS011;14927;51.210;6.838;2023-07-29T08:44:43;1.50;;;0.70;;
27491;SDS011;14927;51.210;6.838;2023-07-29T08:47:28;1.55;;;0.88;;
27491;SDS011;14927;51.210;6.838;2023-07-29T08:50:12;1.13;;;0.60;;
27491;SDS011;14927;51.210;6.838;2023-07-29T08:52:59;1.15;;;0.60;;
27491;SDS011;14927;51.210;6.838;2023-07-29T08:55:49;1.77;;;0.68;;
27491;SDS011;14927;51.210;6.838;2023-07-29T08:58:35;0.70;;;0.70;;
27491;SDS011;14927;51.210;6.838;2023-07-29T09:01:20;0.63;;;0.52;;
27491;SDS011;14927;51.210;6.838;2023-07-29T09:04:05;0.60;;;0.60;;
27491;SDS011;14927;51.210;6.838;2023-07-29T09:06:50;0.50;;;0.50;;
27491;SDS011;14927;51.210;6.838;2023-07-29T09:09:35;0.80;;;0.63;;
27491;SDS011;14927;51.210;6.838;2023-07-29T09:12:20;4.18;;;0.70;;
27491;SDS011;14927;51.210;6.838;2023-07-29T09:15:05;0.60;;;0.60;;
27491;SDS011;14927;51.210;6.838;2023-07-29T09:17:50;1.13;;;0.60;;
27491;SDS011;14927;51.210;6.838;2023-07-29T09:20:34;0.77;;;0.50;;
27491;SDS011;14927;51.210;6.838;2023-07-29T09:23:19;0.50;;;0.50;;
27491;SDS011;14927;51.210;6.838;2023-07-29T09:26:04;0.45;;;0.40;;
27491;SDS011;14927;51.210;6.838;2023-07-29T09:28:51;3.17;;;0.40;;
27491;SDS011;14927;51.210;6.838;2023-07-29T09:31:40;0.65;;;0.60;;
27491;SDS011;14927;51.210;6.838;2023-07-29T09:34:25;1.65;;;0.60;;
27491;SDS011;14927;51.210;6.838;2023-07-29T09:37:21;0.90;;;0.50;;
27491;SDS011;14927;51.210;6.838;2023-07-29T09:40:07;1.25;;;0.57;;
27491;SDS011;14927;51.210;6.838;2023-07-29T09:43:00;2.45;;;0.50;;
27491;SDS011;14927;51.210;6.838;2023-07-29T09:45:45;1.33;;;0.93;;
27491;SDS011;14927;51.210;6.838;2023-07-29T09:48:34;1.45;;;0.57;;
27491;SDS011;14927;51.210;6.838;2023-07-29T09:51:21;1.10;;;0.50;;
27491;SDS011;14927;51.210;6.838;2023-07-29T09:54:05;1.35;;;0.50;;
27491;SDS011;14927;51.210;6.838;2023-07-29T09:56:51;1.25;;;0.50;;
27491;SDS011;14927;51.210;6.838;2023-07-29T09:59:36;1.08;;;0.80;;
27491;SDS011;14927;51.210;6.838;2023-07-29T10:02:20;0.85;;;0.60;;
27491;SDS011;14927;51.210;6.838;2023-07-29T10:05:06;0.57;;;0.52;;
27491;SDS011;14927;51.210;6.838;2023-07-29T10:07:53;2.17;;;0.63;;
27491;SDS011;14927;51.210;6.838;2023-07-29T10:10:40;4.07;;;0.77;;
27491;SDS011;14927;51.210;6.838;2023-07-29T10:13:26;3.05;;;0.70;;
27491;SDS011;14927;51.210;6.838;2023-07-29T10:16:12;1.80;;;0.70;;
27491;SDS011;14927;51.210;6.838;2023-07-29T10:18:56;1.35;;;0.80;;
27491;SDS011;14927;51.210;6.838;2023-07-29T10:21:42;0.85;;;0.70;;
27491;SDS011;14927;51.210;6.838;2023-07-29T10:24:32;1.35;;;0.57;;
27491;SDS011;14927;51.210;6.838;2023-07-29T10:27:17;1.15;;;0.50;;
27491;SDS011;14927;51.210;6.838;2023-07-29T10:30:02;1.33;;;0.65;;
27491;SDS011;14927;51.210;6.838;2023-07-29T10:32:48;5.50;;;0.80;;
27491;SDS011;14927;51.210;6.838;2023-07-29T10:35:33;0.70;;;0.70;;
27491;SDS011;14927;51.210;6.838;2023-07-29T10:38:19;0.55;;;0.55;;
27491;SDS011;14927;51.210;6.838;2023-07-29T10:41:06;1.13;;;0.60;;
27491;SDS011;14927;51.210;6.838;2023-07-29T10:43:50;0.52;;;0.52;;
27491;SDS011;14927;51.210;6.838;2023-07-29T10:46:35;1.85;;;0.70;;
27491;SDS011;14927;51.210;6.838;2023-07-29T10:49:22;1.58;;;0.68;;
27491;SDS011;14927;51.210;6.838;2023-07-29T10:52:07;1.42;;;0.80;;
27491;SDS011;14927;51.210;6.838;2023-07-29T10:54:52;2.05;;;1.00;;
27491;SDS011;14927;51.210;6.838;2023-07-29T10:57:37;5.63;;;0.82;;
27491;SDS011;14927;51.210;6.838;2023-07-29T11:00:25;1.40;;;0.90;;
27491;SDS011;14927;51.210;6.838;2023-07-29T11:03:15;2.08;;;1.13;;
27491;SDS011;14927;51.210;6.838;2023-07-29T11:05:59;4.20;;;0.90;;
27491;SDS011;14927;51.210;6.838;2023-07-29T11:08:48;1.30;;;0.70;;
27491;SDS011;14927;51.210;6.838;2023-07-29T11:11:34;0.60;;;0.60;;
27491;SDS011;14927;51.210;6.838;2023-07-29T11:14:23;2.08;;;0.88;;
27491;SDS011;14927;51.210;6.838;2023-07-29T11:17:08;0.70;;;0.60;;
27491;SDS011;14927;51.210;6.838;2023-07-29T11:19:53;0.95;;;0.60;;
27491;SDS011;14927;51.210;6.838;2023-07-29T11:22:39;3.45;;;0.68;;
27491;SDS011;14927;51.210;6.838;2023-07-29T11:25:24;1.17;;;0.88;;
27491;SDS011;14927;51.210;6.838;2023-07-29T11:28:11;0.65;;;0.60;;
27491;SDS011;14927;51.210;6.838;2023-07-29T11:30:56;0.77;;;0.75;;
27491;SDS011;14927;51.210;6.838;2023-07-29T11:33:41;1.67;;;1.08;;
27491;SDS011;14927;51.210;6.838;2023-07-29T11:36:26;1.10;;;0.70;;
27491;SDS011;14927;51.210;6.838;2023-07-29T11:39:11;1.98;;;0.80;;
27491;SDS011;14927;51.210;6.838;2023-07-29T11:41:55;1.40;;;0.70;;
27491;SDS011;14927;51.210;6.838;2023-07-29T11:44:40;2.83;;;0.82;;
27491;SDS011;14927;51.210;6.838;2023-07-29T11:47:25;2.63;;;1.02;;
27491;SDS011;14927;51.210;6.838;2023-07-29T11:50:10;1.75;;;1.10;;
27491;SDS011;14927;51.210;6.838;2023-07-29T11:52:59;1.30;;;0.90;;
27491;SDS011;14927;51.210;6.838;2023-07-29T11:55:45;1.45;;;0.80;;
27491;SDS011;14927;51.210;6.838;2023-07-29T11:58:36;1.15;;;0.70;;
27491;SDS011;14927;51.210;6.838;2023-07-29T12:01:21;1.38;;;0.80;;
27491;SDS011;14927;51.210;6.838;2023-07-29T12:04:06;2.13;;;0.80;;
27491;SDS011;14927;51.210;6.838;2023-07-29T12:06:51;16.95;;;1.55;;
27491;SDS011;14927;51.210;6.838;2023-07-29T12:09:36;1.00;;;0.90;;
27491;SDS011;14927;51.210;6.838;2023-07-29T12:12:24;1.13;;;0.82;;
27491;SDS011;14927;51.210;6.838;2023-07-29T12:15:09;1.58;;;0.88;;
27491;SDS011;14927;51.210;6.838;2023-07-29T12:17:55;1.70;;;0.90;;
27491;SDS011;14927;51.210;6.838;2023-07-29T12:20:41;1.88;;;0.80;;
27491;SDS011;14927;51.210;6.838;2023-07-29T12:23:25;0.90;;;0.90;;
27491;SDS011;14927;51.210;6.838;2023-07-29T12:26:10;1.30;;;0.98;;
27491;SDS011;14927;51.210;6.838;2023-07-29T12:28:55;3.42;;;0.90;;
27491;SDS011;14927;51.210;6.838;2023-07-29T12:31:42;1.25;;;0.70;;
27491;SDS011;14927;51.210;6.838;2023-07-29T12:34:27;1.63;;;0.82;;
27491;SDS011;14927;51.210;6.838;2023-07-29T12:37:13;4.43;;;1.20;;
27491;SDS011;14927;51.210;6.838;2023-07-29T12:39:58;2.05;;;0.70;;
27491;SDS011;14927;51.210;6.838;2023-07-29T12:42:43;1.27;;;1.10;;
27491;SDS011;14927;51.210;6.838;2023-07-29T12:45:27;1.48;;;0.82;;
27491;SDS011;14927;51.210;6.838;2023-07-29T12:48:19;4.93;;;0.80;;
27491;SDS011;14927;51.210;6.838;2023-07-29T12:51:03;2.17;;;1.02;;
27491;SDS011;14927;51.210;6.838;2023-07-29T12:53:48;0.70;;;0.70;;
27491;SDS011;14927;51.210;6.838;2023-07-29T12:56:33;2.00;;;1.20;;
27491;SDS011;14927;51.210;6.838;2023-07-29T12:59:18;0.88;;;0.77;;
27491;SDS011;14927;51.210;6.838;2023-07-29T13:02:02;1.77;;;0.70;;
27491;SDS011;14927;51.210;6.838;2023-07-29T13:04:47;7.30;;;1.15;;
27491;SDS011;14927;51.210;6.838;2023-07-29T13:07:32;1.08;;;0.80;;
27491;SDS011;14927;51.210;6.838;2023-07-29T13:10:17;2.50;;;0.80;;
27491;SDS011;14927;51.210;6.838;2023-07-29T13:13:01;1.35;;;0.80;;
27491;SDS011;14927;51.210;6.838;2023-07-29T13:15:46;1.80;;;1.10;;
27491;SDS011;14927;51.210;6.838;2023-07-29T13:18:31;1.45;;;0.90;;
27491;SDS011;14927;51.210;6.838;2023-07-29T13:21:16;1.27;;;0.98;;
27491;SDS011;14927;51.210;6.838;2023-07-29T13:24:01;0.90;;;0.90;;
27491;SDS011;14927;51.210;6.838;2023-07-29T13:26:46;0.80;;;0.80;;
27491;SDS011;14927;51.210;6.838;2023-07-29T13:29:30;1.20;;;0.93;;
27491;SDS011;14927;51.210;6.838;2023-07-29T13:32:15;2.13;;;0.90;;
27491;SDS011;14927;51.210;6.838;2023-07-29T13:35:00;6.32;;;1.15;;
27491;SDS011;14927;51.210;6.838;2023-07-29T13:37:44;1.05;;;0.85;;
27491;SDS011;14927;51.210;6.838;2023-07-29T13:40:29;1.70;;;0.90;;
27491;SDS011;14927;51.210;6.838;2023-07-29T13:43:14;4.20;;;1.33;;
27491;SDS011;14927;51.210;6.838;2023-07-29T13:45:59;1.02;;;0.95;;
27491;SDS011;14927;51.210;6.838;2023-07-29T13:48:44;1.00;;;0.90;;
27491;SDS011;14927;51.210;6.838;2023-07-29T13:51:28;1.85;;;1.40;;
27491;SDS011;14927;51.210;6.838;2023-07-29T13:54:13;5.30;;;1.00;;
27491;SDS011;14927;51.210;6.838;2023-07-29T13:56:57;2.80;;;1.30;;
27491;SDS011;14927;51.210;6.838;2023-07-29T13:59:42;2.03;;;1.20;;
27491;SDS011;14927;51.210;6.838;2023-07-29T14:02:27;1.85;;;1.10;;
27491;SDS011;14927;51.210;6.838;2023-07-29T14:05:11;2.50;;;1.13;;
27491;SDS011;14927;51.210;6.838;2023-07-29T14:07:56;1.63;;;1.20;;
27491;SDS011;14927;51.210;6.838;2023-07-29T14:10:41;2.25;;;1.20;;
27491;SDS011;14927;51.210;6.838;2023-07-29T14:13:25;1.65;;;1.15;;
27491;SDS011;14927;51.210;6.838;2023-07-29T14:16:10;0.98;;;0.93;;
27491;SDS011;14927;51.210;6.838;2023-07-29T14:18:54;2.17;;;1.20;;
27491;SDS011;14927;51.210;6.838;2023-07-29T14:21:39;1.10;;;1.00;;
27491;SDS011;14927;51.210;6.838;2023-07-29T14:24:24;0.88;;;0.80;;
27491;SDS011;14927;51.210;6.838;2023-07-29T14:27:08;1.02;;;0.80;;
27491;SDS011;14927;51.210;6.838;2023-07-29T14:29:53;5.47;;;1.00;;
27491;SDS011;14927;51.210;6.838;2023-07-29T14:32:38;1.67;;;1.23;;
27491;SDS011;14927;51.210;6.838;2023-07-29T14:35:22;1.42;;;0.93;;
27491;SDS011;14927;51.210;6.838;2023-07-29T14:38:07;1.33;;;1.20;;
27491;SDS011;14927;51.210;6.838;2023-07-29T14:40:52;1.70;;;1.13;;
27491;SDS011;14927;51.210;6.838;2023-07-29T14:43:41;10.48;;;3.80;;
27491;SDS011;14927;51.210;6.838;2023-07-29T14:46:29;1.45;;;1.35;;
27491;SDS011;14927;51.210;6.838;2023-07-29T14:49:13;1.10;;;1.00;;
27491;SDS011;14927;51.210;6.838;2023-07-29T14:51:58;1.90;;;1.05;;
27491;SDS011;14927;51.210;6.838;2023-07-29T14:54:43;1.15;;;1.05;;
27491;SDS011;14927;51.210;6.838;2023-07-29T14:57:27;0.75;;;0.73;;
27491;SDS011;14927;51.210;6.838;2023-07-29T15:00:12;1.20;;;1.10;;
27491;SDS011;14927;51.210;6.838;2023-07-29T15:02:57;1.13;;;0.85;;
27491;SDS011;14927;51.210;6.838;2023-07-29T15:05:42;2.55;;;0.85;;
27491;SDS011;14927;51.210;6.838;2023-07-29T15:08:27;2.78;;;0.70;;
27491;SDS011;14927;51.210;6.838;2023-07-29T15:11:11;1.27;;;0.80;;
27491;SDS011;14927;51.210;6.838;2023-07-29T15:13:56;1.10;;;0.93;;
27491;SDS011;14927;51.210;6.838;2023-07-29T15:16:41;1.42;;;0.75;;
27491;SDS011;14927;51.210;6.838;2023-07-29T15:19:25;2.92;;;0.85;;
27491;SDS011;14927;51.210;6.838;2023-07-29T15:22:10;0.90;;;0.88;;
27491;SDS011;14927;51.210;6.838;2023-07-29T15:24:55;1.10;;;1.00;;
27491;SDS011;14927;51.210;6.838;2023-07-29T15:27:39;2.67;;;1.20;;
27491;SDS011;14927;51.210;6.838;2023-07-29T15:30:23;1.25;;;0.75;;
27491;SDS011;14927;51.210;6.838;2023-07-29T15:33:08;0.80;;;0.80;;
27491;SDS011;14927;51.210;6.838;2023-07-29T15:35:53;2.33;;;0.98;;
27491;SDS011;14927;51.210;6.838;2023-07-29T15:38:37;0.93;;;0.75;;
27491;SDS011;14927;51.210;6.838;2023-07-29T15:41:22;2.85;;;0.80;;
27491;SDS011;14927;51.210;6.838;2023-07-29T15:44:07;1.05;;;0.80;;
27491;SDS011;14927;51.210;6.838;2023-07-29T15:46:52;1.75;;;0.80;;
27491;SDS011;14927;51.210;6.838;2023-07-29T15:49:36;0.73;;;0.63;;
27491;SDS011;14927;51.210;6.838;2023-07-29T15:52:21;0.70;;;0.70;;
27491;SDS011;14927;51.210;6.838;2023-07-29T15:55:06;0.73;;;0.73;;
27491;SDS011;14927;51.210;6.838;2023-07-29T15:57:50;1.13;;;0.98;;
27491;SDS011;14927;51.210;6.838;2023-07-29T16:00:35;0.70;;;0.70;;
27491;SDS011;14927;51.210;6.838;2023-07-29T16:03:20;0.93;;;0.93;;
27491;SDS011;14927;51.210;6.838;2023-07-29T16:06:06;2.10;;;1.08;;
27491;SDS011;14927;51.210;6.838;2023-07-29T16:08:51;0.60;;;0.60;;
27491;SDS011;14927;51.210;6.838;2023-07-29T16:11:36;0.90;;;0.90;;
27491;SDS011;14927;51.210;6.838;2023-07-29T16:14:20;1.55;;;0.95;;
27491;SDS011;14927;51.210;6.838;2023-07-29T16:17:07;2.25;;;0.90;;
27491;SDS011;14927;51.210;6.838;2023-07-29T16:19:53;1.58;;;0.88;;
27491;SDS011;14927;51.210;6.838;2023-07-29T16:22:40;2.92;;;0.90;;
27491;SDS011;14927;51.210;6.838;2023-07-29T16:25:25;0.75;;;0.75;;
27491;SDS011;14927;51.210;6.838;2023-07-29T16:28:10;0.98;;;0.77;;
27491;SDS011;14927;51.210;6.838;2023-07-29T16:30:54;1.05;;;0.70;;
27491;SDS011;14927;51.210;6.838;2023-07-29T16:33:39;1.45;;;1.00;;
27491;SDS011;14927;51.210;6.838;2023-07-29T16:36:24;0.70;;;0.60;;
27491;SDS011;14927;51.210;6.838;2023-07-29T16:39:08;0.80;;;0.80;;
27491;SDS011;14927;51.210;6.838;2023-07-29T16:41:53;0.80;;;0.70;;
27491;SDS011;14927;51.210;6.838;2023-07-29T16:44:40;0.90;;;0.65;;
27491;SDS011;14927;51.210;6.838;2023-07-29T16:47:25;2.20;;;1.00;;
27491;SDS011;14927;51.210;6.838;2023-07-29T16:50:10;0.73;;;0.73;;
27491;SDS011;14927;51.210;6.838;2023-07-29T16:52:54;0.75;;;0.70;;
27491;SDS011;14927;51.210;6.838;2023-07-29T16:55:41;1.52;;;0.90;;